Time;durP1;ratioP1;P1;durP2;ratioP2;P2;SDS_P1;SDS_P2;PMS_P1;PMS_P2;Temp;Humidity;BMP_temperature;BMP_pressure;BME280_temperature;BME280_humidity;BME280_pressure;Samples;Min_cycle;Max_cycle;Signal;HPM_P1;HPM_P2
2022/03/19 00:00:15;;;;;;;21.07;16.33;;;;;;;-0.20;52.24;103791.28;2107193;28;20216;-67
2022/03/19 00:01:15;;;;;;;23.05;16.83;;;;;;;0.58;52.25;103916.38;2107130;28;20577;-67
2022/03/19 00:02:18;;;;;;;23.77;17.03;;;;;;;0.52;52.64;103914.00;2107083;28;20181;-67
2022/03/19 00:03:20;;;;;;;23.38;16.98;;;;;;;0.49;52.95;103937.22;2106880;28;20739;-67
2022/03/19 00:04:21;;;;;;;24.30;17.10;;;;;;;0.48;53.23;103913.75;2106489;28;20257;-67
2022/03/19 00:05:21;;;;;;;23.43;16.90;;;;;;;0.46;53.41;103915.94;2106881;28;20185;-67
2022/03/19 00:06:22;;;;;;;26.33;16.40;;;;;;;0.36;53.40;103902.38;2107085;28;20310;-67
2022/03/19 00:07:23;;;;;;;24.03;17.07;;;;;;;0.41;53.50;103917.91;2107016;28;20181;-67
2022/03/19 00:08:24;;;;;;;20.98;16.63;;;;;;;0.38;53.58;103919.31;2107073;28;20735;-67
2022/03/19 00:09:25;;;;;;;23.23;16.47;;;;;;;0.37;53.86;103919.59;2107149;28;20217;-67
2022/03/19 00:10:26;;;;;;;22.17;15.60;;;;;;;0.36;53.79;103915.22;2107060;28;20173;-67
2022/03/19 00:11:26;;;;;;;22.43;15.77;;;;;;;0.36;53.57;103920.69;2106417;28;20261;-67
2022/03/19 00:12:27;;;;;;;20.23;14.50;;;;;;;0.32;53.61;103914.16;2106195;28;20170;-67
2022/03/19 00:13:27;;;;;;;19.53;14.23;;;;;;;-0.21;53.80;103835.97;2098541;28;20560;-67
2022/03/19 00:14:28;;;;;;;21.47;13.97;;;;;;;-0.57;53.53;103775.44;2097319;28;20229;-67
2022/03/19 00:15:28;;;;;;;26.17;14.40;;;;;;;-0.87;53.31;103747.56;2097831;28;20186;-67
2022/03/19 00:16:29;;;;;;;22.70;13.80;;;;;;;0.23;53.35;103911.22;2098603;28;20176;-67
2022/03/19 00:17:30;;;;;;;19.87;13.23;;;;;;;0.20;53.72;103908.22;2098418;28;20183;-67
2022/03/19 00:18:30;;;;;;;16.73;11.40;;;;;;;-0.35;53.67;103827.59;2097850;28;20185;-67
2022/03/19 00:19:31;;;;;;;15.03;11.63;;;;;;;0.15;53.95;103908.25;2097937;28;20168;-67
2022/03/19 00:20:33;;;;;;;17.90;12.37;;;;;;;-0.15;53.91;103890.19;2105940;28;20536;-67
2022/03/19 00:21:34;;;;;;;19.45;11.82;;;;;;;0.08;53.85;103922.22;2106939;28;20155;-67
2022/03/19 00:22:36;;;;;;;16.93;12.73;;;;;;;-0.05;54.23;103898.31;2106678;28;20231;-67
2022/03/19 00:23:36;;;;;;;15.68;11.88;;;;;;;0.01;54.29;103912.75;2106606;28;20519;-67
2022/03/19 00:24:37;;;;;;;16.57;11.63;;;;;;;0.01;53.99;103912.75;2106636;28;20193;-67
2022/03/19 00:25:38;;;;;;;17.37;12.23;;;;;;;-0.01;54.30;103912.19;2106561;28;20192;-67
2022/03/19 00:26:39;;;;;;;15.50;11.75;;;;;;;0.00;54.60;103911.91;2106838;28;20696;-67
2022/03/19 00:27:40;;;;;;;17.57;10.63;;;;;;;-0.01;54.59;103913.00;2106096;28;20189;-67
2022/03/19 00:28:41;;;;;;;13.40;10.90;;;;;;;-0.02;54.29;103914.13;2106136;28;20182;-67
2022/03/19 00:29:41;;;;;;;15.07;10.13;;;;;;;-0.83;54.49;103794.09;2105983;28;20273;-67
2022/03/19 00:30:41;;;;;;;14.80;11.37;;;;;;;-1.19;54.11;103725.38;2106603;28;20257;-67
2022/03/19 00:31:42;;;;;;;13.60;10.30;;;;;;;-0.23;54.57;103884.50;2106662;28;20189;-67
2022/03/19 00:32:42;;;;;;;16.33;10.30;;;;;;;-0.10;54.31;103908.44;2106555;28;20185;-67
2022/03/19 00:33:43;;;;;;;16.20;11.13;;;;;;;-0.10;54.67;103911.16;2106278;28;20176;-67
2022/03/19 00:34:43;;;;;;;17.00;11.37;;;;;;;-0.12;54.94;103908.72;2106704;28;20180;-67
2022/03/19 00:35:44;;;;;;;15.10;11.07;;;;;;;-0.15;54.45;103914.72;2106624;28;20172;-67
2022/03/19 00:36:44;;;;;;;12.90;10.03;;;;;;;-0.57;54.76;103840.81;2106812;28;20182;-67
2022/03/19 00:37:47;;;;;;;13.87;10.10;;;;;;;-0.14;54.56;103951.00;2106750;28;20186;-67
2022/03/19 00:38:48;;;;;;;16.92;10.27;;;;;;;-0.16;54.49;103904.91;2106728;28;20176;-67
2022/03/19 00:39:48;;;;;;;15.32;11.18;;;;;;;-0.27;54.61;103895.16;2106736;28;20191;-67
2022/03/19 00:40:51;;;;;;;18.17;13.50;;;;;;;-0.20;54.98;103908.50;2106768;28;20177;-67
2022/03/19 00:41:55;;;;;;;19.75;13.52;;;;;;;-0.22;54.98;103906.03;2106810;28;20174;-67
2022/03/19 00:42:55;;;;;;;19.02;12.95;;;;;;;-0.23;55.21;103895.41;2105935;28;20192;-67
2022/03/19 00:43:56;;;;;;;18.70;13.73;;;;;;;-0.63;55.16;103843.84;2103594;28;20198;-67
2022/03/19 00:44:56;;;;;;;21.10;13.83;;;;;;;-0.28;55.48;103900.91;2097685;28;20194;-67
2022/03/19 00:45:56;;;;;;;17.30;12.63;;;;;;;-0.30;55.85;103900.38;2097573;28;20164;-67
2022/03/19 00:46:57;;;;;;;18.97;13.37;;;;;;;-0.48;55.30;103875.66;2098195;28;20192;-67
2022/03/19 00:47:58;;;;;;;20.97;13.17;;;;;;;-1.57;55.29;103705.09;2098044;28;20235;-67
2022/03/19 00:48:59;;;;;;;25.97;14.80;;;;;;;-0.41;55.63;103901.50;2098306;28;20658;-67
2022/03/19 00:50:00;;;;;;;24.92;14.10;;;;;;;-0.34;55.32;103907.47;2098311;28;20173;-67
2022/03/19 00:51:01;;;;;;;24.35;14.20;;;;;;;-0.47;55.75;103898.00;2098354;28;20264;-67
2022/03/19 00:52:02;;;;;;;22.30;13.50;;;;;;;-0.44;56.35;103918.41;2098323;28;20173;-67
2022/03/19 00:53:03;;;;;;;18.40;13.35;;;;;;;-0.52;56.34;103915.47;2098321;28;20173;-67
2022/03/19 00:54:04;;;;;;;17.70;13.03;;;;;;;-1.27;55.87;103796.72;2097682;28;20214;-67
2022/03/19 00:55:05;;;;;;;18.48;13.38;;;;;;;-0.55;55.82;103919.56;2098159;28;20644;-67
2022/03/19 00:56:06;;;;;;;19.55;13.60;;;;;;;-0.60;56.41;103914.13;2098362;28;20184;-67
2022/03/19 00:57:06;;;;;;;19.37;14.33;;;;;;;-0.63;56.64;103920.09;2098162;28;20211;-67
2022/03/19 00:58:07;;;;;;;18.80;13.17;;;;;;;-0.68;56.82;103918.22;2098017;28;20186;-67
2022/03/19 00:59:08;;;;;;;16.50;12.93;;;;;;;-2.14;57.07;103695.72;2098329;28;20200;-67
2022/03/19 01:00:11;;;;;;;18.93;13.13;;;;;;;-1.28;57.14;103841.34;2098248;28;20674;-67
2022/03/19 01:01:11;;;;;;;18.23;12.90;;;;;;;-1.02;58.06;103887.28;2097570;28;20218;-67
2022/03/19 01:02:12;;;;;;;18.47;13.67;;;;;;;-0.88;58.27;103906.56;2097708;28;20186;-67
2022/03/19 01:03:13;;;;;;;19.83;13.60;;;;;;;-0.83;57.50;103903.81;2098000;28;20256;-67
2022/03/19 01:04:14;;;;;;;23.17;14.35;;;;;;;-1.16;57.15;103842.66;2097391;28;20185;-67
2022/03/19 01:05:16;;;;;;;19.03;13.20;;;;;;;-0.68;57.39;103905.72;2097512;28;20184;-67
2022/03/19 01:06:16;;;;;;;23.17;14.13;;;;;;;-1.89;57.09;103722.03;2098207;28;20196;-67
2022/03/19 01:07:17;;;;;;;21.10;13.57;;;;;;;-0.66;57.43;103904.34;2098106;28;20180;-67
2022/03/19 01:08:17;;;;;;;21.63;16.47;;;;;;;-0.62;57.29;103914.38;2098257;28;20235;-67
2022/03/19 01:09:18;;;;;;;23.70;16.57;;;;;;;-0.77;57.35;103894.53;2098126;28;20182;-67
2022/03/19 01:10:25;;;;;;;19.50;14.13;;;;;;;-0.68;57.96;103911.16;2098336;28;20706;-67
2022/03/19 01:11:26;;;;;;;22.42;15.27;;;;;;;-0.72;57.79;103911.69;2098228;28;20640;-67
2022/03/19 01:12:26;;;;;;;25.27;14.70;;;;;;;-1.30;57.95;103846.22;2098031;28;20188;-67
2022/03/19 01:13:27;;;;;;;18.60;13.27;;;;;;;-0.70;58.60;103925.84;2106364;28;20647;-67
2022/03/19 01:14:27;;;;;;;17.63;13.27;;;;;;;-0.64;58.33;103918.50;2106191;28;20216;-67
2022/03/19 01:15:28;;;;;;;19.23;13.80;;;;;;;-0.61;58.18;103910.56;2106223;28;20272;-67
2022/03/19 01:16:28;;;;;;;19.30;14.37;;;;;;;-1.36;57.68;103784.75;2106577;28;20173;-67
2022/03/19 01:17:29;;;;;;;20.43;14.83;;;;;;;-0.48;57.45;103911.09;2106441;28;20201;-67
2022/03/19 01:18:30;;;;;;;18.00;13.97;;;;;;;-0.43;57.48;103907.25;2106576;28;20180;-67
2022/03/19 01:20:49;;;;;;;17.02;12.73;;;;;;;-0.51;56.93;103894.19;2098092;28;20237;-67
2022/03/19 01:21:50;;;;;;;17.10;12.73;;;;;;;-0.43;57.68;103909.97;2098108;28;20183;-67
2022/03/19 01:22:51;;;;;;;19.73;13.77;;;;;;;-0.43;56.41;103918.13;2097953;28;20200;-67
2022/03/19 01:23:51;;;;;;;21.83;13.90;;;;;;;-1.48;56.75;103740.72;2097614;28;20635;-67
2022/03/19 01:24:52;;;;;;;19.93;15.07;;;;;;;-0.37;56.23;103902.56;2098049;28;20185;-67
2022/03/19 01:25:52;;;;;;;19.47;14.50;;;;;;;-0.36;55.90;103902.28;2097897;28;20204;-67
2022/03/19 01:26:53;;;;;;;22.13;14.63;;;;;;;-1.01;55.44;103799.06;2098092;28;20192;-67
2022/03/19 01:27:53;;;;;;;20.23;14.93;;;;;;;-1.06;56.81;103798.28;2097892;28;20176;-67
2022/03/19 01:28:54;;;;;;;18.67;13.57;;;;;;;-0.39;56.73;103910.22;2097371;28;20208;-67
2022/03/19 01:29:54;;;;;;;17.77;12.77;;;;;;;-0.45;56.42;103916.78;2097345;28;20242;-67
2022/03/19 01:30:55;;;;;;;18.60;13.57;;;;;;;-0.51;56.28;103907.00;2098202;28;20189;-67
2022/03/19 01:31:55;;;;;;;18.63;13.40;;;;;;;-0.48;56.37;103905.63;2098036;28;20342;-67
2022/03/19 01:32:56;;;;;;;16.50;12.50;;;;;;;-2.20;56.40;103617.19;2098121;28;20184;-67
2022/03/19 01:33:57;;;;;;;19.77;14.07;;;;;;;-0.52;56.38;103884.38;2097667;28;20675;-67
2022/03/19 01:34:57;;;;;;;19.77;13.37;;;;;;;-0.42;56.23;103899.88;2098052;28;20226;-67
2022/03/19 01:35:58;;;;;;;23.90;14.40;;;;;;;-0.43;55.78;103893.63;2097817;28;20188;-67
2022/03/19 01:36:58;;;;;;;22.30;14.20;;;;;;;-0.45;55.42;103897.72;2097913;28;20302;-67
2022/03/19 01:37:59;;;;;;;22.10;14.23;;;;;;;-0.50;56.08;103895.00;2097871;28;20647;-67
2022/03/19 01:38:59;;;;;;;21.93;13.57;;;;;;;-1.12;56.61;103805.63;2098093;28;20224;-67
2022/03/19 01:40:00;;;;;;;21.20;14.03;;;;;;;-0.56;56.26;103901.59;2097948;28;20178;-67
2022/03/19 01:41:00;;;;;;;19.47;13.57;;;;;;;-0.57;56.94;103893.69;2097931;28;20165;-67
2022/03/19 01:42:01;;;;;;;19.77;13.80;;;;;;;-1.22;56.82;103804.88;2097997;28;20663;-67
2022/03/19 01:43:02;;;;;;;16.77;12.52;;;;;;;-1.27;56.88;103828.53;2097943;28;20234;-67
2022/03/19 01:44:03;;;;;;;19.35;13.88;;;;;;;-1.70;56.51;103737.50;2097748;28;20185;-67
2022/03/19 01:45:08;;;;;;;22.30;13.97;;;;;;;-0.69;56.65;103896.72;2097988;28;20262;-67
2022/03/19 01:46:08;;;;;;;19.23;13.55;;;;;;;-0.66;56.22;103896.97;2097845;28;20568;-67
2022/03/19 01:47:10;;;;;;;20.60;14.10;;;;;;;-1.71;56.25;103727.72;2097711;28;20276;-67
2022/03/19 01:48:10;;;;;;;19.40;13.02;;;;;;;-0.68;55.87;103892.88;2097619;28;20163;-67
2022/03/19 01:49:11;;;;;;;19.80;12.63;;;;;;;-0.73;55.86;103891.00;2097964;28;20675;-67
2022/03/19 01:50:12;;;;;;;20.73;13.13;;;;;;;-1.27;56.14;103809.50;2097930;28;20233;-67
2022/03/19 01:51:12;;;;;;;17.95;13.00;;;;;;;-1.42;56.83;103795.91;2097934;28;20172;-67
2022/03/19 01:52:13;;;;;;;19.53;12.90;;;;;;;-0.82;56.64;103895.38;2097902;28;20225;-67
2022/03/19 01:53:14;;;;;;;17.20;11.97;;;;;;;-0.85;56.21;103898.66;2097839;28;20192;-67
2022/03/19 01:54:15;;;;;;;18.03;13.27;;;;;;;-0.90;57.16;103897.88;2097736;28;20717;-67
2022/03/19 01:55:21;;;;;;;18.05;13.23;;;;;;;-0.95;56.94;103895.16;2097133;28;20254;-67
2022/03/19 01:56:21;;;;;;;18.52;14.27;;;;;;;-0.96;57.03;103891.59;2097294;28;20184;-67
2022/03/19 01:57:25;;;;;;;18.63;13.03;;;;;;;-1.23;56.98;103853.03;2097945;28;20267;-67
2022/03/19 01:58:25;;;;;;;20.52;13.75;;;;;;;-0.97;57.50;103889.19;2097872;28;20646;-67
2022/03/19 01:59:30;;;;;;;26.73;14.77;;;;;;;-0.98;57.39;103891.06;2097891;28;20714;-67
2022/03/19 02:00:31;;;;;;;22.45;14.75;;;;;;;-1.03;57.68;103892.97;2097786;28;20180;-67
2022/03/19 02:01:31;;;;;;;20.10;14.33;;;;;;;-2.09;57.86;103724.78;2097706;28;20640;-67
2022/03/19 02:02:32;;;;;;;21.17;14.07;;;;;;;-1.13;57.98;103899.28;2097895;28;20279;-67
2022/03/19 02:03:33;;;;;;;22.07;14.10;;;;;;;-1.51;58.19;103871.84;2097778;28;20237;-67
2022/03/19 02:04:35;;;;;;;21.02;14.43;;;;;;;-1.30;58.88;103899.84;2097752;28;20176;-67
2022/03/19 02:05:36;;;;;;;22.65;15.15;;;;;;;-1.26;58.89;103890.84;2097690;28;20179;-67
2022/03/19 02:06:38;;;;;;;19.85;14.10;;;;;;;-1.37;59.05;103873.72;2097815;28;20187;-67
2022/03/19 02:07:38;;;;;;;19.90;14.00;;;;;;;-1.17;58.48;103895.47;2097736;28;20620;-67
2022/03/19 02:08:42;;;;;;;19.93;13.77;;;;;;;-1.58;58.21;103831.31;2097919;28;20264;-67
2022/03/19 02:09:43;;;;;;;20.23;13.00;;;;;;;-1.18;58.29;103895.72;2097826;28;20615;-67
2022/03/19 02:10:43;;;;;;;17.80;12.77;;;;;;;-1.32;58.42;103879.16;2097781;28;20185;-67
2022/03/19 02:11:44;;;;;;;19.60;13.77;;;;;;;-1.84;58.32;103790.81;2097813;28;20206;-67
2022/03/19 02:12:46;;;;;;;21.07;13.90;;;;;;;-1.11;58.12;103910.69;2100150;28;20394;-67
2022/03/19 02:13:47;;;;;;;17.55;13.02;;;;;;;-1.34;57.88;103844.34;2105636;28;20263;-67
2022/03/19 02:14:48;;;;;;;20.58;13.48;;;;;;;-1.57;57.47;103803.00;2105589;28;20196;-67
2022/03/19 02:15:48;;;;;;;19.73;13.98;;;;;;;-0.96;57.12;103891.59;2105385;28;20179;-67
2022/03/19 02:16:49;;;;;;;22.80;14.60;;;;;;;-0.97;57.20;103898.16;2105677;28;20565;-67
2022/03/19 02:17:49;;;;;;;20.47;13.00;;;;;;;-0.96;57.12;103891.59;2106102;28;20667;-67
2022/03/19 02:18:50;;;;;;;16.70;12.47;;;;;;;-0.98;57.28;103895.69;2106277;28;20230;-67
2022/03/19 02:19:53;;;;;;;18.75;12.15;;;;;;;-1.02;57.37;103891.91;2104107;28;20863;-67
2022/03/19 02:20:59;;;;;;;16.13;12.07;;;;;;;-1.07;57.38;103891.94;2097038;28;20232;-67
2022/03/19 02:22:00;;;;;;;17.55;12.32;;;;;;;-1.07;57.33;103884.56;2097271;28;20278;-67
2022/03/19 02:25:39;;;;;;;16.23;12.10;;;;;;;-1.03;56.82;103886.75;2097740;28;20255;-67
2022/03/19 02:26:48;;;;;;;21.67;12.63;;;;;;;-1.20;56.73;103865.25;2097716;28;20180;-67
2022/03/19 02:27:49;;;;;;;19.67;12.55;;;;;;;-1.13;57.11;103896.56;2097662;28;20600;-67
2022/03/19 02:28:49;;;;;;;20.00;12.60;;;;;;;-1.23;57.26;103879.41;2098002;28;20189;-67
2022/03/19 02:29:51;;;;;;;17.20;12.70;;;;;;;-1.11;57.09;103893.56;2097718;28;20216;-67
2022/03/19 02:30:52;;;;;;;18.38;12.68;;;;;;;-1.09;57.32;103893.28;2097038;28;20176;-67
2022/03/19 02:31:54;;;;;;;16.60;11.63;;;;;;;-1.17;56.68;103879.13;2097094;28;20235;-67
2022/03/19 02:32:55;;;;;;;16.67;11.65;;;;;;;-1.07;56.33;103884.56;2097586;28;20188;-67
2022/03/19 02:33:55;;;;;;;19.03;12.60;;;;;;;-1.06;56.54;103882.66;2097461;28;20597;-67
2022/03/19 02:34:56;;;;;;;17.83;13.03;;;;;;;-1.16;55.55;103872.59;2097766;28;20176;-67
2022/03/19 02:35:56;;;;;;;21.13;12.70;;;;;;;-1.24;55.71;103866.09;2097626;28;20183;-67
2022/03/19 02:36:57;;;;;;;19.30;13.37;;;;;;;-1.32;55.81;103859.31;2097658;28;20780;-67
2022/03/19 02:37:57;;;;;;;18.87;13.00;;;;;;;-1.21;57.04;103897.09;2097742;28;20263;-67
2022/03/19 02:38:58;;;;;;;20.40;12.73;;;;;;;-1.28;56.83;103894.94;2097774;28;20577;-67
2022/03/19 02:39:58;;;;;;;18.23;13.33;;;;;;;-1.26;57.00;103888.13;2097830;28;20180;-67
2022/03/19 02:41:03;;;;;;;19.70;12.83;;;;;;;-1.88;56.14;103788.91;2097732;28;20195;-67
2022/03/19 02:42:06;;;;;;;19.77;12.40;;;;;;;-1.64;55.82;103830.78;2097906;28;20180;-67
2022/03/19 02:43:06;;;;;;;16.45;12.25;;;;;;;-1.26;56.17;103899.81;2097747;28;20176;-67
2022/03/19 02:44:07;;;;;;;18.10;12.70;;;;;;;-1.39;56.39;103879.72;2100801;28;20169;-67
2022/03/19 02:45:08;;;;;;;16.87;12.50;;;;;;;-1.26;55.96;103901.75;2106088;28;20196;-67
2022/03/19 02:46:09;;;;;;;19.25;12.50;;;;;;;-1.66;56.02;103839.19;2106127;28;20179;-67
2022/03/19 02:47:09;;;;;;;20.77;12.53;;;;;;;-1.33;56.81;103902.03;2105983;28;20262;-67
2022/03/19 02:48:11;;;;;;;20.53;12.27;;;;;;;-1.33;56.41;103912.09;2105958;28;20207;-67
2022/03/19 02:49:12;;;;;;;29.70;13.07;;;;;;;-1.99;56.09;103790.81;2106050;28;20175;-67
2022/03/19 02:50:13;;;;;;;26.55;13.55;;;;;;;-1.33;56.30;103900.38;2106119;28;20227;-67
2022/03/19 02:51:13;;;;;;;22.27;12.33;;;;;;;-1.34;56.16;103901.50;2106121;28;20232;-67
2022/03/19 02:52:14;;;;;;;21.50;12.70;;;;;;;-1.35;56.19;103903.38;2106105;28;20168;-67
2022/03/19 02:53:14;;;;;;;19.33;12.20;;;;;;;-1.34;56.44;103906.94;2106533;28;20172;-67
2022/03/19 02:54:17;;;;;;;21.90;12.90;;;;;;;-1.38;56.65;103895.78;2106998;28;20199;-67
2022/03/19 02:55:18;;;;;;;18.30;12.05;;;;;;;-1.95;57.15;103816.34;2107093;28;20649;-67
2022/03/19 02:56:19;;;;;;;20.00;12.30;;;;;;;-1.63;57.32;103879.47;2107730;28;20573;-67
2022/03/19 02:57:19;;;;;;;15.87;11.77;;;;;;;-2.67;57.30;103711.72;2107703;28;20261;-67
2022/03/19 02:58:20;;;;;;;15.43;11.30;;;;;;;-1.48;57.45;103898.50;2107649;28;20179;-67
2022/03/19 02:59:21;;;;;;;16.57;11.77;;;;;;;-1.50;57.51;103902.59;2107894;28;20562;-67
2022/03/19 03:00:22;;;;;;;14.77;11.52;;;;;;;-1.50;57.65;103908.81;2107733;28;20243;-67
2022/03/19 03:01:22;;;;;;;17.50;12.27;;;;;;;-3.21;57.92;103623.66;2107845;28;20730;-67
2022/03/19 03:02:23;;;;;;;14.87;11.03;;;;;;;-1.59;57.97;103893.31;2107546;28;20242;-67
2022/03/19 03:03:23;;;;;;;14.80;11.63;;;;;;;-1.53;57.73;103903.13;2107552;28;20283;-67
2022/03/19 03:04:25;;;;;;;14.60;11.07;;;;;;;-1.57;58.00;103902.84;2106759;28;20191;-67
2022/03/19 03:05:25;;;;;;;17.45;10.85;;;;;;;-1.76;57.77;103879.19;2107159;28;20442;-67
2022/03/19 03:06:27;;;;;;;15.63;11.47;;;;;;;-1.62;57.93;103897.41;2107813;28;20187;-67
2022/03/19 03:07:28;;;;;;;14.68;10.90;;;;;;;-2.27;57.93;103793.25;2107638;28;20175;-67
2022/03/19 03:08:28;;;;;;;17.03;11.43;;;;;;;-1.63;58.41;103899.28;2107704;28;20185;-67
2022/03/19 03:09:31;;;;;;;17.20;10.80;;;;;;;-1.61;58.21;103901.75;2107740;28;20683;-67
2022/03/19 03:10:33;;;;;;;18.10;11.40;;;;;;;-1.64;58.22;103904.19;2106886;28;20171;-67
2022/03/19 03:11:34;;;;;;;13.60;10.40;;;;;;;-1.71;58.38;103893.59;2107050;28;20336;-67
2022/03/19 03:12:36;;;;;;;15.68;11.40;;;;;;;-1.66;58.26;103901.75;2107577;28;20269;-67
2022/03/19 03:13:36;;;;;;;16.45;11.45;;;;;;;-1.64;57.94;103896.03;2107621;28;20273;-67
2022/03/19 03:14:36;;;;;;;13.97;10.37;;;;;;;-1.63;58.14;103893.06;2107782;28;20729;-67
2022/03/19 03:15:37;;;;;;;15.90;10.77;;;;;;;-2.63;58.06;103729.09;2107645;28;20174;-67
2022/03/19 03:16:38;;;;;;;16.80;10.40;;;;;;;-1.76;58.34;103888.16;2106957;28;20183;-67
2022/03/19 03:17:39;;;;;;;16.95;10.25;;;;;;;-1.66;58.51;103896.31;2107070;28;20289;-67
2022/03/19 03:18:39;;;;;;;14.30;10.80;;;;;;;-1.67;58.41;103894.69;2107617;28;20179;-67
2022/03/19 03:19:41;;;;;;;18.33;10.50;;;;;;;-1.92;58.08;103864.75;2107616;28;20685;-67
2022/03/19 03:20:42;;;;;;;16.42;11.10;;;;;;;-1.74;58.43;103894.16;2107515;28;20175;-67
2022/03/19 03:21:43;;;;;;;17.47;11.90;;;;;;;-2.50;58.59;103766.59;2107654;28;20155;-67
2022/03/19 03:22:44;;;;;;;18.47;11.30;;;;;;;-2.47;58.50;103771.50;2107502;28;20186;-67
2022/03/19 03:23:44;;;;;;;19.70;11.73;;;;;;;-1.80;58.80;103865.28;2107303;28;20525;-67
2022/03/19 03:24:45;;;;;;;20.97;11.20;;;;;;;-1.61;58.36;103899.03;2107586;28;20186;-67
2022/03/19 03:25:45;;;;;;;24.30;11.87;;;;;;;-1.67;58.46;103876.44;2107527;28;20265;-67
2022/03/19 03:26:46;;;;;;;25.83;12.53;;;;;;;-1.57;57.83;103890.03;2107506;28;20179;-67
2022/03/19 03:27:46;;;;;;;22.87;11.40;;;;;;;-1.56;58.40;103893.59;2107483;28;20179;-67
2022/03/19 03:28:47;;;;;;;22.00;11.17;;;;;;;-1.52;57.62;103893.88;2107688;28;20183;-67
2022/03/19 03:29:48;;;;;;;17.00;11.20;;;;;;;-1.52;58.11;103891.97;2107643;28;20667;-67
2022/03/19 03:30:48;;;;;;;15.80;11.10;;;;;;;-3.20;57.94;103626.13;2107650;28;20213;-67
2022/03/19 03:31:49;;;;;;;14.27;10.73;;;;;;;-1.59;57.98;103896.03;2107469;28;20587;-67
2022/03/19 03:32:49;;;;;;;18.10;11.40;;;;;;;-2.36;58.05;103822.03;2107479;28;20175;-67
2022/03/19 03:33:50;;;;;;;15.50;10.73;;;;;;;-1.67;57.78;103921.88;2107476;28;20262;-67
2022/03/19 03:34:51;;;;;;;13.82;11.05;;;;;;;-2.30;58.49;103786.47;2107550;28;20179;-67
2022/03/19 03:35:51;;;;;;;15.00;10.57;;;;;;;-1.65;58.23;103894.41;2107358;28;20545;-67
2022/03/19 03:36:52;;;;;;;14.73;11.00;;;;;;;-1.88;58.36;103852.25;2107452;28;20182;-67
2022/03/19 03:37:53;;;;;;;16.00;11.00;;;;;;;-1.63;58.11;103898.50;2107367;28;20182;-67
2022/03/19 03:38:54;;;;;;;19.13;11.60;;;;;;;-1.65;58.47;103895.22;2107480;28;20193;-67
2022/03/19 03:39:54;;;;;;;19.27;11.90;;;;;;;-1.92;58.22;103853.06;2107405;28;20175;-67
2022/03/19 03:40:55;;;;;;;15.43;11.57;;;;;;;-1.75;58.07;103881.63;2107522;28;20190;-67
2022/03/19 03:41:56;;;;;;;17.33;11.80;;;;;;;-1.84;57.92;103866.13;2107454;28;20171;-67
2022/03/19 03:42:56;;;;;;;16.83;11.23;;;;;;;-2.20;58.33;103815.53;2106700;28;20265;-67
2022/03/19 03:43:57;;;;;;;16.33;11.60;;;;;;;-1.69;58.54;103899.56;2106569;28;20641;-67
2022/03/19 03:44:58;;;;;;;18.93;11.90;;;;;;;-1.67;58.60;103904.72;2107444;28;20182;-67
2022/03/19 03:46:00;;;;;;;19.60;12.55;;;;;;;-1.64;58.62;103904.19;2107142;28;20189;-67
2022/03/19 03:47:00;;;;;;;16.25;11.55;;;;;;;-1.60;58.30;103906.09;2107435;28;20179;-67
2022/03/19 03:48:01;;;;;;;16.40;11.87;;;;;;;-1.60;59.45;103900.66;2107349;28;20180;-67
2022/03/19 03:49:01;;;;;;;15.07;11.63;;;;;;;-1.50;58.75;103906.09;2107542;28;20187;-67
2022/03/19 03:50:03;;;;;;;15.77;11.73;;;;;;;-1.47;58.43;103902.84;2107424;28;20198;-67
2022/03/19 03:51:06;;;;;;;16.52;12.65;;;;;;;-1.45;57.86;103908.03;2107317;28;20210;-67
2022/03/19 03:52:07;;;;;;;18.00;12.18;;;;;;;-1.42;57.96;103913.72;2107238;28;20316;-67
2022/03/19 03:53:08;;;;;;;17.70;11.93;;;;;;;-1.38;57.21;103916.72;2107340;28;20176;-67
2022/03/19 03:54:09;;;;;;;15.98;11.80;;;;;;;-1.41;57.53;103907.19;2107133;28;20203;-67
2022/03/19 03:55:09;;;;;;;19.47;13.50;;;;;;;-1.43;57.85;103911.28;2107421;28;20179;-67
2022/03/19 03:56:10;;;;;;;19.00;12.07;;;;;;;-1.77;57.71;103888.41;2107311;28;20171;-67
2022/03/19 03:57:11;;;;;;;18.25;12.10;;;;;;;-1.46;58.15;103912.63;2107273;28;20231;-67
2022/03/19 03:58:12;;;;;;;16.63;11.77;;;;;;;-2.43;58.23;103765.25;2107200;28;20179;-67
2022/03/19 03:59:13;;;;;;;14.63;11.13;;;;;;;-1.48;57.76;103917.53;2107323;28;20167;-67
2022/03/19 04:00:14;;;;;;;15.07;11.40;;;;;;;-2.25;57.85;103781.03;2107350;28;20186;-67
2022/03/19 04:01:16;;;;;;;15.80;11.48;;;;;;;-1.41;57.85;103915.34;2107241;28;20259;-67
2022/03/19 04:02:17;;;;;;;14.73;10.60;;;;;;;-1.38;57.29;103917.53;2107282;28;20266;-67
2022/03/19 04:03:17;;;;;;;16.03;10.53;;;;;;;-1.37;57.30;103913.72;2107195;28;20187;-67
2022/03/19 04:04:18;;;;;;;14.60;9.87;;;;;;;-1.37;56.70;103911.00;2107006;28;20236;-67
2022/03/19 04:05:19;;;;;;;14.33;10.07;;;;;;;-1.77;57.21;103850.34;2106540;28;20311;-67
2022/03/19 04:06:20;;;;;;;15.50;10.63;;;;;;;-1.38;57.12;103918.34;2106772;28;20183;-67
2022/03/19 04:07:21;;;;;;;22.53;11.40;;;;;;;-1.38;57.35;103915.63;2107186;28;20649;-67
2022/03/19 04:08:22;;;;;;;19.42;11.43;;;;;;;-1.37;56.98;103914.53;2106471;28;20210;-67
2022/03/19 04:09:22;;;;;;;21.37;11.60;;;;;;;-1.47;57.39;103900.94;2106772;28;20194;-67
2022/03/19 04:10:23;;;;;;;20.73;10.57;;;;;;;-1.38;57.54;103918.34;2107333;28;20187;-67
2022/03/19 04:11:23;;;;;;;17.43;11.13;;;;;;;-1.39;57.34;103915.88;2107301;28;20210;-67
2022/03/19 04:12:24;;;;;;;13.33;10.30;;;;;;;-1.38;57.52;103914.00;2107135;28;20238;-67
2022/03/19 04:13:24;;;;;;;16.17;11.97;;;;;;;-1.42;57.14;103918.34;2107227;28;20237;-67
2022/03/19 04:14:25;;;;;;;14.93;11.23;;;;;;;-2.39;56.96;103755.47;2106962;28;20199;-67
2022/03/19 04:15:26;;;;;;;17.37;11.03;;;;;;;-3.20;57.37;103630.72;2107283;28;20188;-67
2022/03/19 04:16:26;;;;;;;15.70;11.15;;;;;;;-1.52;57.50;103919.16;2107276;28;20245;-67
2022/03/19 04:17:27;;;;;;;15.70;12.13;;;;;;;-1.52;57.45;103918.34;2107132;28;20266;-67
2022/03/19 04:18:28;;;;;;;16.10;11.80;;;;;;;-1.57;57.26;103911.81;2107215;28;20178;-67
2022/03/19 04:19:28;;;;;;;14.93;11.87;;;;;;;-1.56;57.16;103915.34;2107278;28;20185;-67
2022/03/19 04:20:29;;;;;;;14.20;11.37;;;;;;;-1.56;57.53;103912.63;2099691;28;20566;-67
2022/03/19 04:21:29;;;;;;;15.37;11.00;;;;;;;-1.85;57.54;103870.72;2098830;28;20178;-67
2022/03/19 04:22:37;;;;;;;15.30;11.07;;;;;;;-1.58;57.69;103918.34;2098501;28;20673;-67
2022/03/19 04:23:38;;;;;;;14.90;10.35;;;;;;;-1.57;57.19;103919.97;2098451;28;20184;-67
2022/03/19 04:24:39;;;;;;;16.33;12.03;;;;;;;-1.63;57.33;103927.59;2098638;28;20252;-67
2022/03/19 04:25:40;;;;;;;17.63;12.97;;;;;;;-1.70;57.41;103924.31;2098678;28;20184;-67
2022/03/19 04:26:40;;;;;;;26.20;14.25;;;;;;;-2.39;57.55;103814.41;2098755;28;20188;-67
2022/03/19 04:27:42;;;;;;;16.87;13.27;;;;;;;-1.88;57.78;103897.66;2098682;28;20189;-67
2022/03/19 04:28:43;;;;;;;19.52;14.45;;;;;;;-1.76;57.48;103918.06;2098781;28;20270;-67
2022/03/19 04:29:43;;;;;;;16.20;11.83;;;;;;;-1.79;58.04;103920.50;2098628;28;20229;-67
2022/03/19 04:30:44;;;;;;;18.90;12.43;;;;;;;-2.20;57.90;103857.13;2098787;28;20176;-67
2022/03/19 04:31:45;;;;;;;17.47;12.80;;;;;;;-1.76;57.79;103926.22;2098681;28;20180;-67
2022/03/19 04:33:00;;;;;;;18.33;13.43;;;;;;;-1.82;57.54;103919.13;2098049;28;20651;-67
2022/03/19 04:34:00;;;;;;;20.70;13.52;;;;;;;-1.83;57.79;103922.13;2097756;28;20525;-67
2022/03/19 04:36:29;;;;;;;20.53;15.27;;;;;;;-2.30;57.46;103835.34;2098638;28;20255;-67
2022/03/19 04:36:30;;;;;;;21.30;15.98;;;;;;;-1.78;57.70;103920.25;2098639;28;20708;-67
2022/03/19 04:37:30;;;;;;;25.52;16.95;;;;;;;-1.80;57.79;103927.03;2098698;28;20160;-67
2022/03/19 04:38:31;;;;;;;26.87;16.80;;;;;;;-1.83;57.70;103924.84;2098648;28;20263;-67
2022/03/19 04:39:31;;;;;;;26.00;18.10;;;;;;;-1.81;57.82;103919.97;2098844;28;20225;-67
2022/03/19 04:40:33;;;;;;;27.27;18.40;;;;;;;-1.78;57.69;103925.69;2098646;28;20210;-67
2022/03/19 04:41:35;;;;;;;28.73;18.10;;;;;;;-1.74;58.27;103923.22;2098671;28;20182;-67